Rakitna Rakitna

Učna pot


Napoved ravni onesnaženosti z delci PM10 več informacij Air pollution


Kamera VP Rakitna več informacij Weather station camera


Cestna kamera več informacij Road camera


ARSO, spremljajte nas več informacij


Obiščite še:

Template documentacija
in prenos

in še drugo stran



Posebna pozornost v zvezi z vremenskimi dogajanji ni potrebna.    Posebna pozornost v zvezi z vremenskimi dogajanji ni potrebna.

METAR v bližini

   
LJLJ - Ljubljana
Posodobljeno: 15-01-2021 21:30
nekaj oblakov  
nekaj oblakov  
   Veter: ZSZ 3.7 km/h
Veter: ZSZ 3.7 km/h
Temperatura: -7°C
Točka rosišča: -8°C
Vlažnost: 93%
Zračni tlak: 1020 hPa
Oblaki: nekaj oblakov
Vidljivost: več kot 10 km
Podrobnosti o oblakih: nekaj oblakov 5000 ft
LJLJ 152030Z 30002KT 9999 FEW050 M07/M08 Q1020 NOSIG
LJCE - Cerklje ob Krki
Posodobljeno: 15-01-2021 22:00
delno oblačno  
delno oblačno  
   Veter: Brezveterje
Veter: Brezveterje
Temperatura: -4°C
Točka rosišča: -5°C
Vlažnost: 93%
Zračni tlak: 1021 hPa
Oblaki: delno oblačno
Vidljivost: več kot 10 km
Podrobnosti o oblakih: delno oblačno
LJCE 152100Z AUTO 00000KT 9999 NSC M04/M05 Q1021
LJMB - Maribor
Posodobljeno: 15-01-2021 22:00
jasno  
jasno  
   Veter: Jug 3.7 km/h
Veter: Jug 3.7 km/h
Temperatura: -3°C
Točka rosišča: -5°C
Vlažnost: 86%
Zračni tlak: 1020 hPa
Vidljivost: več kot 10 km
Podrobnosti o oblakih: jasno
LJMB 152100Z 18002KT CAVOK M03/M05 Q1020
LJPZ - Portorož
Posodobljeno: 15-01-2021 22:00
jasno  
jasno  
   Veter: VJV 7.4 km/h
Veter: VJV 7.4 km/h
Temperatura: -2°C
Občutek mraza: -5°C
Točka rosišča: -6°C
Vlažnost: 74%
Zračni tlak: 1020 hPa
Vidljivost: več kot 10 km
Podrobnosti o oblakih: jasno
LJPZ 152100Z 12004KT CAVOK M02/M06 Q1020
LDRI - Rijeka, Airport, Croatia
Posodobljeno: 15-01-2021 22:00
jasno  
jasno  
   Veter: različen 7.4 km/h
Veter: različen 7.4 km/h
Temperatura: 3°C
Občutek mraza: 1°C
Točka rosišča: -9°C
Vlažnost: 41%
Zračni tlak: 1019 hPa
Vidljivost: več kot 10 km
Podrobnosti o oblakih: jasno
LDRI 152100Z VRB04KT CAVOK 03/M09 Q1019
LOWK - Klagenfurt, Airport, Avstia
Posodobljeno: 15-01-2021 21:50
jasno  
jasno  
   Veter: ZSZ 11.1 km/h
Veter: ZSZ 11.1 km/h
Temperatura: -9°C
Občutek mraza: -14°C
Točka rosišča: -11°C
Vlažnost: 86%
Zračni tlak: 1021 hPa
Oblaki: jasno
Vidljivost: več kot 10 km
Podrobnosti o oblakih: jasno
LOWK 152050Z AUTO 30006KT 9999 NCD M09/M11 Q1021

Script developed by  Saratoga-weather.org Adapted for the template by  Weerstation Leuven

Vremenski podatki so objavljeni na:

Slovenska vremenska mreža

WeatherlinkIP

MapView

Geostik

Oprema, ki se uporablja:

Vremenska postaja
Davis VP2+ ventilirana

Vremenski program
WeatherLink

Vremenski server
Shuttle XS35V4

Ponudnik
Vremensko društvo ZEVS

Davis VP2+ ventilirana

WeatherLink

Shuttle XS35V4

Vremensko društvo ZEVS

Meteorološki podatki vremenske postaje Rakitna so neuradni, meteorološka postaja sama pa ni del državne mreže Agencije Republike Slovenije za okolje (ARSO),
je pa vključena v Vremensko društvo ZEVS. Prikazani podatki so izmerjeni točno, vendar so zgolj informativni in nimajo značaja uradnega podatka.

Podatke meri vremenska postaja "Davis VP2+ ventilirana" od 05.03.2011 dalje.

Opozarjamo, da ne prevzamemo odgovornosti za morebitno nastalo škodo, ki bi nastala zaradi odločitve, sprejete na osnovi teh podatkov!